sensor_id;sensor_type;location;lat;lon;timestamp;temperature;humidity
70421;SHT31;57848;51.938;15.520;2024-03-07T00:00:43;3.85;93.65
70421;SHT31;57848;51.938;15.520;2024-03-07T00:03:08;3.84;93.74
70421;SHT31;57848;51.938;15.520;2024-03-07T00:05:34;3.84;93.23
70421;SHT31;57848;51.938;15.520;2024-03-07T00:07:59;3.88;93.31
70421;SHT31;57848;51.938;15.520;2024-03-07T00:10:24;3.80;92.95
70421;SHT31;57848;51.938;15.520;2024-03-07T00:12:50;3.74;92.98
70421;SHT31;57848;51.938;15.520;2024-03-07T00:15:15;3.59;92.79
70421;SHT31;57848;51.938;15.520;2024-03-07T00:17:41;3.52;92.78
70421;SHT31;57848;51.938;15.520;2024-03-07T00:20:07;3.44;93.25
70421;SHT31;57848;51.938;15.520;2024-03-07T00:22:44;3.36;93.44
70421;SHT31;57848;51.938;15.520;2024-03-07T00:25:10;3.29;93.34
70421;SHT31;57848;51.938;15.520;2024-03-07T00:27:36;3.25;93.16
70421;SHT31;57848;51.938;15.520;2024-03-07T00:30:05;3.26;93.76
70421;SHT31;57848;51.938;15.520;2024-03-07T00:32:33;3.20;93.78
70421;SHT31;57848;51.938;15.520;2024-03-07T00:35:02;3.09;93.61
70421;SHT31;57848;51.938;15.520;2024-03-07T00:37:30;3.01;93.54
70421;SHT31;57848;51.938;15.520;2024-03-07T00:39:56;2.94;93.62
70421;SHT31;57848;51.938;15.520;2024-03-07T00:42:21;2.91;93.83
70421;SHT31;57848;51.938;15.520;2024-03-07T00:44:47;2.92;93.99
70421;SHT31;57848;51.938;15.520;2024-03-07T00:47:14;2.81;93.30
70421;SHT31;57848;51.938;15.520;2024-03-07T00:49:40;2.75;93.82
70421;SHT31;57848;51.938;15.520;2024-03-07T00:52:05;2.68;93.72
70421;SHT31;57848;51.938;15.520;2024-03-07T00:54:31;2.74;93.46
70421;SHT31;57848;51.938;15.520;2024-03-07T00:56:56;2.64;93.38
70421;SHT31;57848;51.938;15.520;2024-03-07T00:59:22;2.55;93.55
70421;SHT31;57848;51.938;15.520;2024-03-07T01:01:48;2.53;93.50
70421;SHT31;57848;51.938;15.520;2024-03-07T01:04:14;2.44;93.40
70421;SHT31;57848;51.938;15.520;2024-03-07T01:06:39;2.38;93.53
70421;SHT31;57848;51.938;15.520;2024-03-07T01:09:06;2.37;93.73
70421;SHT31;57848;51.938;15.520;2024-03-07T01:11:42;2.48;93.80
70421;SHT31;57848;51.938;15.520;2024-03-07T01:14:08;2.43;93.40
70421;SHT31;57848;51.938;15.520;2024-03-07T01:16:34;2.34;93.37
70421;SHT31;57848;51.938;15.520;2024-03-07T01:19:00;2.37;93.68
70421;SHT31;57848;51.938;15.520;2024-03-07T01:21:25;2.37;93.48
70421;SHT31;57848;51.938;15.520;2024-03-07T01:23:51;2.33;93.55
70421;SHT31;57848;51.938;15.520;2024-03-07T01:26:16;2.30;93.54
70421;SHT31;57848;51.938;15.520;2024-03-07T01:28:42;2.22;93.46
70421;SHT31;57848;51.938;15.520;2024-03-07T01:31:08;2.30;93.13
70421;SHT31;57848;51.938;15.520;2024-03-07T01:33:33;2.23;93.01
70421;SHT31;57848;51.938;15.520;2024-03-07T01:35:59;2.19;92.62
70421;SHT31;57848;51.938;15.520;2024-03-07T01:38:24;2.20;93.01
70421;SHT31;57848;51.938;15.520;2024-03-07T01:40:50;2.24;92.64
70421;SHT31;57848;51.938;15.520;2024-03-07T01:43:16;2.23;92.61
70421;SHT31;57848;51.938;15.520;2024-03-07T01:45:41;2.26;92.32
70421;SHT31;57848;51.938;15.520;2024-03-07T01:48:09;2.27;91.75
70421;SHT31;57848;51.938;15.520;2024-03-07T01:50:35;2.30;91.90
70421;SHT31;57848;51.938;15.520;2024-03-07T01:53:09;2.33;91.41
70421;SHT31;57848;51.938;15.520;2024-03-07T01:55:37;2.34;91.18
70421;SHT31;57848;51.938;15.520;2024-03-07T01:58:04;2.38;90.93
70421;SHT31;57848;51.938;15.520;2024-03-07T02:00:30;2.45;90.57
70421;SHT31;57848;51.938;15.520;2024-03-07T02:02:56;2.50;90.36
70421;SHT31;57848;51.938;15.520;2024-03-07T02:05:22;2.47;90.34
70421;SHT31;57848;51.938;15.520;2024-03-07T02:07:47;2.54;90.58
70421;SHT31;57848;51.938;15.520;2024-03-07T02:10:13;2.48;90.49
70421;SHT31;57848;51.938;15.520;2024-03-07T02:12:38;2.48;90.11
70421;SHT31;57848;51.938;15.520;2024-03-07T02:15:04;2.45;89.63
70421;SHT31;57848;51.938;15.520;2024-03-07T02:17:30;2.50;89.34
70421;SHT31;57848;51.938;15.520;2024-03-07T02:19:55;2.40;89.67
70421;SHT31;57848;51.938;15.520;2024-03-07T02:22:20;2.34;90.22
70421;SHT31;57848;51.938;15.520;2024-03-07T02:24:46;2.26;90.09
70421;SHT31;57848;51.938;15.520;2024-03-07T02:27:12;2.16;89.96
70421;SHT31;57848;51.938;15.520;2024-03-07T02:29:40;2.23;89.62
70421;SHT31;57848;51.938;15.520;2024-03-07T02:32:06;2.12;89.91
70421;SHT31;57848;51.938;15.520;2024-03-07T02:34:31;1.95;90.11
70421;SHT31;57848;51.938;15.520;2024-03-07T02:36:57;1.98;89.82
70421;SHT31;57848;51.938;15.520;2024-03-07T02:39:22;1.91;90.47
70421;SHT31;57848;51.938;15.520;2024-03-07T02:41:47;1.86;90.51
70421;SHT31;57848;51.938;15.520;2024-03-07T02:44:13;1.92;90.39
70421;SHT31;57848;51.938;15.520;2024-03-07T02:46:39;1.75;90.71
70421;SHT31;57848;51.938;15.520;2024-03-07T02:49:05;1.78;90.60
70421;SHT31;57848;51.938;15.520;2024-03-07T02:51:30;1.71;91.09
70421;SHT31;57848;51.938;15.520;2024-03-07T02:53:56;1.69;90.87
70421;SHT31;57848;51.938;15.520;2024-03-07T02:56:23;1.58;91.17
70421;SHT31;57848;51.938;15.520;2024-03-07T02:58:48;1.65;91.51
70421;SHT31;57848;51.938;15.520;2024-03-07T03:01:14;1.55;91.50
70421;SHT31;57848;51.938;15.520;2024-03-07T03:03:39;1.51;91.12
70421;SHT31;57848;51.938;15.520;2024-03-07T03:06:08;1.56;90.73
70421;SHT31;57848;51.938;15.520;2024-03-07T03:08:34;1.48;91.03
70421;SHT31;57848;51.938;15.520;2024-03-07T03:11:00;1.48;90.87
70421;SHT31;57848;51.938;15.520;2024-03-07T03:13:26;1.45;91.01
70421;SHT31;57848;51.938;15.520;2024-03-07T03:15:55;1.48;90.62
70421;SHT31;57848;51.938;15.520;2024-03-07T03:18:23;1.50;90.73
70421;SHT31;57848;51.938;15.520;2024-03-07T03:20:52;1.48;90.67
70421;SHT31;57848;51.938;15.520;2024-03-07T03:23:18;1.51;90.61
70421;SHT31;57848;51.938;15.520;2024-03-07T03:25:44;1.44;90.82
70421;SHT31;57848;51.938;15.520;2024-03-07T03:28:10;1.47;90.72
70421;SHT31;57848;51.938;15.520;2024-03-07T03:30:41;1.40;90.66
70421;SHT31;57848;51.938;15.520;2024-03-07T03:33:09;1.47;90.72
70421;SHT31;57848;51.938;15.520;2024-03-07T03:35:35;1.41;90.26
70421;SHT31;57848;51.938;15.520;2024-03-07T03:38:01;1.40;91.08
70421;SHT31;57848;51.938;15.520;2024-03-07T03:40:27;1.48;90.73
70421;SHT31;57848;51.938;15.520;2024-03-07T03:42:52;1.55;90.36
70421;SHT31;57848;51.938;15.520;2024-03-07T03:45:18;1.56;90.25
70421;SHT31;57848;51.938;15.520;2024-03-07T03:47:44;1.56;90.26
70421;SHT31;57848;51.938;15.520;2024-03-07T03:50:11;1.54;90.11
70421;SHT31;57848;51.938;15.520;2024-03-07T03:52:38;1.56;90.05
70421;SHT31;57848;51.938;15.520;2024-03-07T03:55:05;1.52;90.14
70421;SHT31;57848;51.938;15.520;2024-03-07T03:57:43;1.44;90.12
70421;SHT31;57848;51.938;15.520;2024-03-07T04:00:10;1.54;90.10
70421;SHT31;57848;51.938;15.520;2024-03-07T04:02:44;1.48;90.30
70421;SHT31;57848;51.938;15.520;2024-03-07T04:05:10;1.43;90.09
70421;SHT31;57848;51.938;15.520;2024-03-07T04:07:39;1.34;90.33
70421;SHT31;57848;51.938;15.520;2024-03-07T04:10:06;1.34;90.45
70421;SHT31;57848;51.938;15.520;2024-03-07T04:12:38;1.28;90.25
70421;SHT31;57848;51.938;15.520;2024-03-07T04:15:08;1.24;90.58
70421;SHT31;57848;51.938;15.520;2024-03-07T04:17:35;1.20;90.49
70421;SHT31;57848;51.938;15.520;2024-03-07T04:20:02;1.24;90.77
70421;SHT31;57848;51.938;15.520;2024-03-07T04:22:31;1.16;90.43
70421;SHT31;57848;51.938;15.520;2024-03-07T04:24:56;1.08;90.68
70421;SHT31;57848;51.938;15.520;2024-03-07T04:27:22;1.03;91.02
70421;SHT31;57848;51.938;15.520;2024-03-07T04:29:47;1.07;90.61
70421;SHT31;57848;51.938;15.520;2024-03-07T04:32:13;0.96;91.05
70421;SHT31;57848;51.938;15.520;2024-03-07T04:34:39;0.86;91.26
70421;SHT31;57848;51.938;15.520;2024-03-07T04:37:04;0.99;91.34
70421;SHT31;57848;51.938;15.520;2024-03-07T04:39:30;0.97;91.02
70421;SHT31;57848;51.938;15.520;2024-03-07T04:42:04;0.87;91.21
70421;SHT31;57848;51.938;15.520;2024-03-07T04:44:31;0.80;91.16
70421;SHT31;57848;51.938;15.520;2024-03-07T04:46:58;0.87;91.35
70421;SHT31;57848;51.938;15.520;2024-03-07T04:49:26;0.94;91.33
70421;SHT31;57848;51.938;15.520;2024-03-07T04:51:52;0.89;91.12
70421;SHT31;57848;51.938;15.520;2024-03-07T04:54:18;0.80;91.09
70421;SHT31;57848;51.938;15.520;2024-03-07T04:56:47;0.73;91.50
70421;SHT31;57848;51.938;15.520;2024-03-07T04:59:14;0.76;91.51
70421;SHT31;57848;51.938;15.520;2024-03-07T05:01:40;0.73;91.46
70421;SHT31;57848;51.938;15.520;2024-03-07T05:04:06;0.87;91.23
70421;SHT31;57848;51.938;15.520;2024-03-07T05:06:32;0.94;91.26
70421;SHT31;57848;51.938;15.520;2024-03-07T05:09:02;0.97;91.67
70421;SHT31;57848;51.938;15.520;2024-03-07T05:11:29;1.12;91.03
70421;SHT31;57848;51.938;15.520;2024-03-07T05:13:55;1.19;90.75
70421;SHT31;57848;51.938;15.520;2024-03-07T05:16:20;1.34;89.93
70421;SHT31;57848;51.938;15.520;2024-03-07T05:18:46;1.35;90.13
70421;SHT31;57848;51.938;15.520;2024-03-07T05:21:12;1.47;89.52
70421;SHT31;57848;51.938;15.520;2024-03-07T05:23:56;1.54;89.27
70421;SHT31;57848;51.938;15.520;2024-03-07T05:26:21;1.62;88.89
70421;SHT31;57848;51.938;15.520;2024-03-07T05:28:46;1.58;88.62
70421;SHT31;57848;51.938;15.520;2024-03-07T05:31:12;1.62;88.41
70421;SHT31;57848;51.938;15.520;2024-03-07T05:33:38;1.64;88.70
70421;SHT31;57848;51.938;15.520;2024-03-07T05:36:06;1.71;88.43
70421;SHT31;57848;51.938;15.520;2024-03-07T05:38:41;1.74;88.35
70421;SHT31;57848;51.938;15.520;2024-03-07T05:41:13;1.78;88.81
70421;SHT31;57848;51.938;15.520;2024-03-07T05:43:39;1.75;88.29
70421;SHT31;57848;51.938;15.520;2024-03-07T05:46:05;1.76;88.21
70421;SHT31;57848;51.938;15.520;2024-03-07T05:48:32;1.71;88.41
70421;SHT31;57848;51.938;15.520;2024-03-07T05:50:58;1.76;88.34
70421;SHT31;57848;51.938;15.520;2024-03-07T05:53:24;1.76;88.13
70421;SHT31;57848;51.938;15.520;2024-03-07T05:55:50;1.83;88.33
70421;SHT31;57848;51.938;15.520;2024-03-07T05:58:15;1.89;88.30
70421;SHT31;57848;51.938;15.520;2024-03-07T06:00:44;1.87;88.05
70421;SHT31;57848;51.938;15.520;2024-03-07T06:03:17;1.82;87.71
70421;SHT31;57848;51.938;15.520;2024-03-07T06:05:45;1.87;88.20
70421;SHT31;57848;51.938;15.520;2024-03-07T06:08:14;1.87;87.71
70421;SHT31;57848;51.938;15.520;2024-03-07T06:10:42;1.91;88.03
70421;SHT31;57848;51.938;15.520;2024-03-07T06:13:07;1.98;87.70
70421;SHT31;57848;51.938;15.520;2024-03-07T06:15:33;1.96;87.80
70421;SHT31;57848;51.938;15.520;2024-03-07T06:17:59;1.92;87.80
70421;SHT31;57848;51.938;15.520;2024-03-07T06:20:25;1.95;87.82
70421;SHT31;57848;51.938;15.520;2024-03-07T06:22:53;1.92;87.87
70421;SHT31;57848;51.938;15.520;2024-03-07T06:25:19;1.96;88.03
70421;SHT31;57848;51.938;15.520;2024-03-07T06:27:48;1.98;87.64
70421;SHT31;57848;51.938;15.520;2024-03-07T06:30:17;1.91;87.60
70421;SHT31;57848;51.938;15.520;2024-03-07T06:32:43;1.91;87.46
70421;SHT31;57848;51.938;15.520;2024-03-07T06:35:09;1.89;87.74
70421;SHT31;57848;51.938;15.520;2024-03-07T06:37:35;1.79;87.97
70421;SHT31;57848;51.938;15.520;2024-03-07T06:40:01;1.81;88.08
70421;SHT31;57848;51.938;15.520;2024-03-07T06:42:30;1.69;88.07
70421;SHT31;57848;51.938;15.520;2024-03-07T06:44:58;1.64;88.27
70421;SHT31;57848;51.938;15.520;2024-03-07T06:47:23;1.61;88.38
70421;SHT31;57848;51.938;15.520;2024-03-07T06:49:49;1.69;88.35
70421;SHT31;57848;51.938;15.520;2024-03-07T06:52:17;1.62;88.28
70421;SHT31;57848;51.938;15.520;2024-03-07T06:54:43;1.65;88.43
70421;SHT31;57848;51.938;15.520;2024-03-07T06:57:09;1.68;87.96
70421;SHT31;57848;51.938;15.520;2024-03-07T06:59:34;1.75;88.24
70421;SHT31;57848;51.938;15.520;2024-03-07T07:02:02;1.81;88.09
70421;SHT31;57848;51.938;15.520;2024-03-07T07:04:28;1.85;87.72
70421;SHT31;57848;51.938;15.520;2024-03-07T07:07:07;1.79;88.02
70421;SHT31;57848;51.938;15.520;2024-03-07T07:09:32;1.78;88.15
70421;SHT31;57848;51.938;15.520;2024-03-07T07:11:58;1.91;88.04
70421;SHT31;57848;51.938;15.520;2024-03-07T07:14:23;1.87;87.41
70421;SHT31;57848;51.938;15.520;2024-03-07T07:16:48;1.92;87.52
70421;SHT31;57848;51.938;15.520;2024-03-07T07:19:14;1.92;87.78
70421;SHT31;57848;51.938;15.520;2024-03-07T07:21:39;2.01;87.32
70421;SHT31;57848;51.938;15.520;2024-03-07T07:24:06;2.06;87.29
70421;SHT31;57848;51.938;15.520;2024-03-07T07:26:32;2.07;87.50
70421;SHT31;57848;51.938;15.520;2024-03-07T07:28:57;2.12;86.59
70421;SHT31;57848;51.938;15.520;2024-03-07T07:31:23;2.19;86.95
70421;SHT31;57848;51.938;15.520;2024-03-07T07:33:49;2.16;87.08
70421;SHT31;57848;51.938;15.520;2024-03-07T07:36:15;2.19;86.93
70421;SHT31;57848;51.938;15.520;2024-03-07T07:38:40;2.23;86.92
70421;SHT31;57848;51.938;15.520;2024-03-07T07:41:06;2.29;86.64
70421;SHT31;57848;51.938;15.520;2024-03-07T07:43:32;2.29;86.40
70421;SHT31;57848;51.938;15.520;2024-03-07T07:45:57;2.36;86.18
70421;SHT31;57848;51.938;15.520;2024-03-07T07:48:22;2.38;86.47
70421;SHT31;57848;51.938;15.520;2024-03-07T07:50:49;2.45;86.25
70421;SHT31;57848;51.938;15.520;2024-03-07T07:53:16;2.48;86.37
70421;SHT31;57848;51.938;15.520;2024-03-07T07:55:41;2.57;86.26
70421;SHT31;57848;51.938;15.520;2024-03-07T07:58:07;2.58;85.18
70421;SHT31;57848;51.938;15.520;2024-03-07T08:00:33;2.68;85.60
70421;SHT31;57848;51.938;15.520;2024-03-07T08:03:05;2.75;85.67
70421;SHT31;57848;51.938;15.520;2024-03-07T08:05:35;2.88;85.85
70421;SHT31;57848;51.938;15.520;2024-03-07T08:08:03;2.84;85.44
70421;SHT31;57848;51.938;15.520;2024-03-07T08:10:31;2.94;84.91
70421;SHT31;57848;51.938;15.520;2024-03-07T08:12:58;2.99;85.19
70421;SHT31;57848;51.938;15.520;2024-03-07T08:15:25;3.09;85.63
70421;SHT31;57848;51.938;15.520;2024-03-07T08:17:53;3.13;84.47
70421;SHT31;57848;51.938;15.520;2024-03-07T08:20:21;3.16;84.79
70421;SHT31;57848;51.938;15.520;2024-03-07T08:22:48;3.22;85.52
70421;SHT31;57848;51.938;15.520;2024-03-07T08:25:16;3.35;84.91
70421;SHT31;57848;51.938;15.520;2024-03-07T08:27:46;3.35;84.31
70421;SHT31;57848;51.938;15.520;2024-03-07T08:30:13;3.46;84.24
70421;SHT31;57848;51.938;15.520;2024-03-07T08:32:43;3.40;83.77
70421;SHT31;57848;51.938;15.520;2024-03-07T08:35:09;3.47;84.28
70421;SHT31;57848;51.938;15.520;2024-03-07T08:37:37;3.57;83.42
70421;SHT31;57848;51.938;15.520;2024-03-07T08:40:03;3.49;83.33
70421;SHT31;57848;51.938;15.520;2024-03-07T08:42:39;3.62;83.65
70421;SHT31;57848;51.938;15.520;2024-03-07T08:45:07;3.59;83.24
70421;SHT31;57848;51.938;15.520;2024-03-07T08:47:36;3.64;83.04
70421;SHT31;57848;51.938;15.520;2024-03-07T08:50:02;3.64;83.37
70421;SHT31;57848;51.938;15.520;2024-03-07T08:52:31;3.75;83.17
70421;SHT31;57848;51.938;15.520;2024-03-07T08:54:57;3.84;83.15
70421;SHT31;57848;51.938;15.520;2024-03-07T08:57:23;3.91;82.35
70421;SHT31;57848;51.938;15.520;2024-03-07T08:59:49;3.95;82.38
70421;SHT31;57848;51.938;15.520;2024-03-07T09:02:15;4.05;82.75
70421;SHT31;57848;51.938;15.520;2024-03-07T09:04:40;4.19;81.85
70421;SHT31;57848;51.938;15.520;2024-03-07T09:07:06;4.22;81.79
70421;SHT31;57848;51.938;15.520;2024-03-07T09:09:32;4.25;81.25
70421;SHT31;57848;51.938;15.520;2024-03-07T09:11:59;4.38;80.53
70421;SHT31;57848;51.938;15.520;2024-03-07T09:14:26;4.43;80.04
70421;SHT31;57848;51.938;15.520;2024-03-07T09:16:51;4.45;79.72
70421;SHT31;57848;51.938;15.520;2024-03-07T09:19:17;4.53;79.08
70421;SHT31;57848;51.938;15.520;2024-03-07T09:21:48;4.60;79.06
70421;SHT31;57848;51.938;15.520;2024-03-07T09:24:15;4.72;78.93
70421;SHT31;57848;51.938;15.520;2024-03-07T09:26:41;4.72;78.23
70421;SHT31;57848;51.938;15.520;2024-03-07T09:29:06;4.77;77.64
70421;SHT31;57848;51.938;15.520;2024-03-07T09:31:32;4.86;76.93
70421;SHT31;57848;51.938;15.520;2024-03-07T09:33:58;4.98;76.93
70421;SHT31;57848;51.938;15.520;2024-03-07T09:36:24;5.04;77.48
70421;SHT31;57848;51.938;15.520;2024-03-07T09:38:49;5.20;78.04
70421;SHT31;57848;51.938;15.520;2024-03-07T09:41:15;5.35;77.68
70421;SHT31;57848;51.938;15.520;2024-03-07T09:43:43;5.66;77.29
70421;SHT31;57848;51.938;15.520;2024-03-07T09:46:09;6.46;73.58
70421;SHT31;57848;51.938;15.520;2024-03-07T09:48:35;7.27;69.51
70421;SHT31;57848;51.938;15.520;2024-03-07T09:51:02;7.88;68.21
70421;SHT31;57848;51.938;15.520;2024-03-07T09:53:30;7.51;67.73
70421;SHT31;57848;51.938;15.520;2024-03-07T09:55:56;6.82;69.88
70421;SHT31;57848;51.938;15.520;2024-03-07T09:58:25;6.65;70.52
70421;SHT31;57848;51.938;15.520;2024-03-07T10:00:51;7.00;70.77
70421;SHT31;57848;51.938;15.520;2024-03-07T10:03:21;7.96;66.58
70421;SHT31;57848;51.938;15.520;2024-03-07T10:05:49;8.36;64.60
70421;SHT31;57848;51.938;15.520;2024-03-07T10:08:16;9.70;60.84
70421;SHT31;57848;51.938;15.520;2024-03-07T10:10:44;10.66;56.57
70421;SHT31;57848;51.938;15.520;2024-03-07T10:13:10;11.62;54.93
70421;SHT31;57848;51.938;15.520;2024-03-07T10:15:35;11.61;53.60
70421;SHT31;57848;51.938;15.520;2024-03-07T10:18:01;12.50;52.84
70421;SHT31;57848;51.938;15.520;2024-03-07T10:20:26;11.23;52.08
70421;SHT31;57848;51.938;15.520;2024-03-07T10:22:52;9.82;54.73
70421;SHT31;57848;51.938;15.520;2024-03-07T10:25:20;8.26;57.15
70421;SHT31;57848;51.938;15.520;2024-03-07T10:27:47;8.64;57.12
70421;SHT31;57848;51.938;15.520;2024-03-07T10:30:15;8.67;57.58
70421;SHT31;57848;51.938;15.520;2024-03-07T10:32:46;10.51;55.17
70421;SHT31;57848;51.938;15.520;2024-03-07T10:35:11;12.02;52.55
70421;SHT31;57848;51.938;15.520;2024-03-07T10:37:40;12.18;51.21
70421;SHT31;57848;51.938;15.520;2024-03-07T10:40:06;13.86;48.78
70421;SHT31;57848;51.938;15.520;2024-03-07T10:42:44;14.42;47.34
70421;SHT31;57848;51.938;15.520;2024-03-07T10:45:15;14.69;44.27
70421;SHT31;57848;51.938;15.520;2024-03-07T10:47:42;14.28;43.86
70421;SHT31;57848;51.938;15.520;2024-03-07T10:53:45;14.99;42.99
70421;SHT31;57848;51.938;15.520;2024-03-07T10:56:21;15.47;41.84
70421;SHT31;57848;51.938;15.520;2024-03-07T10:59:10;14.73;42.53
70421;SHT31;57848;51.938;15.520;2024-03-07T11:01:44;13.38;44.00
70421;SHT31;57848;51.938;15.520;2024-03-07T11:04:15;12.84;45.54
70421;SHT31;57848;51.938;15.520;2024-03-07T11:06:41;12.84;45.88
70421;SHT31;57848;51.938;15.520;2024-03-07T11:09:07;12.71;45.10
70421;SHT31;57848;51.938;15.520;2024-03-07T11:11:39;12.74;45.69
70421;SHT31;57848;51.938;15.520;2024-03-07T11:14:10;12.50;45.66
70421;SHT31;57848;51.938;15.520;2024-03-07T11:16:38;12.81;45.42
70421;SHT31;57848;51.938;15.520;2024-03-07T11:19:33;13.26;46.08
70421;SHT31;57848;51.938;15.520;2024-03-07T11:22:02;12.53;44.99
70421;SHT31;57848;51.938;15.520;2024-03-07T11:24:31;13.36;43.55
70421;SHT31;57848;51.938;15.520;2024-03-07T11:26:58;13.34;41.53
70421;SHT31;57848;51.938;15.520;2024-03-07T11:32:09;15.36;40.80
70421;SHT31;57848;51.938;15.520;2024-03-07T11:34:37;15.44;40.50
70421;SHT31;57848;51.938;15.520;2024-03-07T11:37:04;16.19;39.07
70421;SHT31;57848;51.938;15.520;2024-03-07T11:39:42;16.71;38.60
70421;SHT31;57848;51.938;15.520;2024-03-07T11:44:51;16.45;37.67
70421;SHT31;57848;51.938;15.520;2024-03-07T11:47:16;16.39;38.44
70421;SHT31;57848;51.938;15.520;2024-03-07T11:49:43;16.73;37.17
70421;SHT31;57848;51.938;15.520;2024-03-07T11:52:08;16.39;37.72
70421;SHT31;57848;51.938;15.520;2024-03-07T11:54:41;16.33;37.87
70421;SHT31;57848;51.938;15.520;2024-03-07T11:57:11;17.19;38.19
70421;SHT31;57848;51.938;15.520;2024-03-07T11:59:42;17.24;37.08
70421;SHT31;57848;51.938;15.520;2024-03-07T12:02:14;17.76;36.16
70421;SHT31;57848;51.938;15.520;2024-03-07T12:04:49;18.55;35.00
70421;SHT31;57848;51.938;15.520;2024-03-07T12:07:18;18.03;34.89
70421;SHT31;57848;51.938;15.520;2024-03-07T12:09:44;17.77;35.60
70421;SHT31;57848;51.938;15.520;2024-03-07T12:12:17;17.79;34.82
70421;SHT31;57848;51.938;15.520;2024-03-07T12:14:43;18.45;34.09
70421;SHT31;57848;51.938;15.520;2024-03-07T12:17:09;18.52;34.00
70421;SHT31;57848;51.938;15.520;2024-03-07T12:19:35;18.55;34.66
70421;SHT31;57848;51.938;15.520;2024-03-07T12:22:03;17.18;35.65
70421;SHT31;57848;51.938;15.520;2024-03-07T12:24:39;15.78;37.95
70421;SHT31;57848;51.938;15.520;2024-03-07T12:27:12;14.82;38.44
70421;SHT31;57848;51.938;15.520;2024-03-07T12:29:41;13.66;39.98
70421;SHT31;57848;51.938;15.520;2024-03-07T12:32:13;13.41;41.61
70421;SHT31;57848;51.938;15.520;2024-03-07T12:34:39;13.52;41.98
70421;SHT31;57848;51.938;15.520;2024-03-07T12:37:11;13.79;40.08
70421;SHT31;57848;51.938;15.520;2024-03-07T12:39:36;14.03;41.02
70421;SHT31;57848;51.938;15.520;2024-03-07T12:42:12;13.93;41.04
70421;SHT31;57848;51.938;15.520;2024-03-07T12:44:40;13.14;42.15
70421;SHT31;57848;51.938;15.520;2024-03-07T12:47:09;12.59;41.60
70421;SHT31;57848;51.938;15.520;2024-03-07T12:49:35;11.91;42.86
70421;SHT31;57848;51.938;15.520;2024-03-07T12:52:00;11.72;44.07
70421;SHT31;57848;51.938;15.520;2024-03-07T12:54:26;11.10;44.98
70421;SHT31;57848;51.938;15.520;2024-03-07T12:56:52;11.13;45.37
70421;SHT31;57848;51.938;15.520;2024-03-07T12:59:17;10.86;46.93
70421;SHT31;57848;51.938;15.520;2024-03-07T13:01:45;10.41;46.75
70421;SHT31;57848;51.938;15.520;2024-03-07T13:04:12;10.11;47.47
70421;SHT31;57848;51.938;15.520;2024-03-07T13:06:39;9.87;47.99
70421;SHT31;57848;51.938;15.520;2024-03-07T13:09:11;9.82;47.77
70421;SHT31;57848;51.938;15.520;2024-03-07T13:11:40;10.20;46.69
70421;SHT31;57848;51.938;15.520;2024-03-07T13:14:13;9.90;48.19
70421;SHT31;57848;51.938;15.520;2024-03-07T13:16:39;9.76;48.44
70421;SHT31;57848;51.938;15.520;2024-03-07T13:19:04;9.76;48.20
70421;SHT31;57848;51.938;15.520;2024-03-07T13:21:33;9.62;49.00
70421;SHT31;57848;51.938;15.520;2024-03-07T13:24:01;9.67;49.00
70421;SHT31;57848;51.938;15.520;2024-03-07T13:26:27;9.59;47.56
70421;SHT31;57848;51.938;15.520;2024-03-07T13:28:55;9.35;48.41
70421;SHT31;57848;51.938;15.520;2024-03-07T13:31:21;9.43;48.91
70421;SHT31;57848;51.938;15.520;2024-03-07T13:33:48;9.66;48.60
70421;SHT31;57848;51.938;15.520;2024-03-07T13:36:17;9.80;48.50
70421;SHT31;57848;51.938;15.520;2024-03-07T13:38:49;9.49;46.90
70421;SHT31;57848;51.938;15.520;2024-03-07T13:41:18;9.46;47.55
70421;SHT31;57848;51.938;15.520;2024-03-07T13:43:44;9.21;48.63
70421;SHT31;57848;51.938;15.520;2024-03-07T13:46:09;9.08;47.94
70421;SHT31;57848;51.938;15.520;2024-03-07T13:48:37;9.22;48.54
70421;SHT31;57848;51.938;15.520;2024-03-07T13:51:03;9.12;48.71
70421;SHT31;57848;51.938;15.520;2024-03-07T13:53:33;9.04;49.00
70421;SHT31;57848;51.938;15.520;2024-03-07T13:56:34;8.89;49.59
70421;SHT31;57848;51.938;15.520;2024-03-07T14:01:37;8.77;48.87
70421;SHT31;57848;51.938;15.520;2024-03-07T14:10:45;8.52;50.35
70421;SHT31;57848;51.938;15.520;2024-03-07T14:22:17;8.42;51.85
70421;SHT31;57848;51.938;15.520;2024-03-07T14:27:33;8.35;51.50
70421;SHT31;57848;51.938;15.520;2024-03-07T14:30:28;8.40;51.53
70421;SHT31;57848;51.938;15.520;2024-03-07T14:33:05;8.22;51.89
70421;SHT31;57848;51.938;15.520;2024-03-07T14:35:58;8.09;51.91
70421;SHT31;57848;51.938;15.520;2024-03-07T14:38:28;8.01;51.08
70421;SHT31;57848;51.938;15.520;2024-03-07T14:40:53;7.92;51.81
70421;SHT31;57848;51.938;15.520;2024-03-07T14:43:20;7.89;52.74
70421;SHT31;57848;51.938;15.520;2024-03-07T14:45:46;7.91;52.84
70421;SHT31;57848;51.938;15.520;2024-03-07T14:48:12;7.79;52.96
70421;SHT31;57848;51.938;15.520;2024-03-07T14:50:42;7.82;52.44
70421;SHT31;57848;51.938;15.520;2024-03-07T14:53:08;7.75;52.99
70421;SHT31;57848;51.938;15.520;2024-03-07T14:55:34;7.67;52.02
70421;SHT31;57848;51.938;15.520;2024-03-07T14:58:00;7.48;52.58
70421;SHT31;57848;51.938;15.520;2024-03-07T15:00:26;7.40;52.76
70421;SHT31;57848;51.938;15.520;2024-03-07T15:02:53;7.34;52.84
70421;SHT31;57848;51.938;15.520;2024-03-07T15:05:23;7.33;54.05
70421;SHT31;57848;51.938;15.520;2024-03-07T15:07:50;7.31;54.14
70421;SHT31;57848;51.938;15.520;2024-03-07T15:10:28;7.28;53.91
70421;SHT31;57848;51.938;15.520;2024-03-07T15:12:55;7.20;54.25
70421;SHT31;57848;51.938;15.520;2024-03-07T15:15:20;7.26;54.49
70421;SHT31;57848;51.938;15.520;2024-03-07T15:17:50;7.23;53.93
70421;SHT31;57848;51.938;15.520;2024-03-07T15:20:15;7.20;53.45
70421;SHT31;57848;51.938;15.520;2024-03-07T15:22:54;7.22;53.78
70421;SHT31;57848;51.938;15.520;2024-03-07T15:25:21;7.17;51.91
70421;SHT31;57848;51.938;15.520;2024-03-07T15:27:48;7.17;52.70
70421;SHT31;57848;51.938;15.520;2024-03-07T15:30:16;7.09;52.98
70421;SHT31;57848;51.938;15.520;2024-03-07T15:32:43;7.03;53.00
70421;SHT31;57848;51.938;15.520;2024-03-07T15:35:09;7.06;53.96
70421;SHT31;57848;51.938;15.520;2024-03-07T15:37:45;7.05;53.91
70421;SHT31;57848;51.938;15.520;2024-03-07T15:40:12;6.92;53.56
70421;SHT31;57848;51.938;15.520;2024-03-07T15:42:48;6.93;54.05
70421;SHT31;57848;51.938;15.520;2024-03-07T15:45:17;6.93;53.98
70421;SHT31;57848;51.938;15.520;2024-03-07T15:47:44;6.84;54.44
70421;SHT31;57848;51.938;15.520;2024-03-07T15:50:09;6.78;54.85
70421;SHT31;57848;51.938;15.520;2024-03-07T15:52:41;6.79;54.28
70421;SHT31;57848;51.938;15.520;2024-03-07T15:55:10;6.75;55.25
70421;SHT31;57848;51.938;15.520;2024-03-07T15:57:49;6.71;55.19
70421;SHT31;57848;51.938;15.520;2024-03-07T16:00:18;6.69;55.40